Time;durP1;ratioP1;P1;durP2;ratioP2;P2;SDS_P1;SDS_P2;PMS_P1;PMS_P2;Temp;Humidity;BMP_temperature;BMP_pressure;BME280_temperature;BME280_humidity;BME280_pressure;Samples;Min_cycle;Max_cycle;Signal;HPM_P1;HPM_P2
2023/08/15 00:01:08;;;;;;;11.95;7.60;;;18.20;99.90;;;;;;5014401;28;20075;-63
2023/08/15 00:03:33;;;;;;;14.95;8.07;;;18.20;99.90;;;;;;5030799;28;20041;-65
2023/08/15 00:05:59;;;;;;;13.60;8.00;;;18.30;99.90;;;;;;5031479;28;20163;-63
2023/08/15 00:08:25;;;;;;;12.43;8.43;;;18.40;99.90;;;;;;5029774;28;20286;-63
2023/08/15 00:10:51;;;;;;;12.25;8.02;;;18.40;99.90;;;;;;5014039;28;20096;-64
2023/08/15 00:13:16;;;;;;;13.18;7.15;;;18.50;99.90;;;;;;5029938;28;20106;-64
2023/08/15 00:15:42;;;;;;;11.82;7.40;;;18.50;99.90;;;;;;5030909;28;20661;-63
2023/08/15 00:18:08;;;;;;;9.70;6.45;;;18.50;99.90;;;;;;5030715;28;20045;-63
2023/08/15 00:20:33;;;;;;;9.82;7.07;;;18.40;99.90;;;;;;5030125;28;20230;-63
2023/08/15 00:22:59;;;;;;;13.80;6.88;;;18.40;99.90;;;;;;5029873;28;20178;-63
2023/08/15 00:25:25;;;;;;;12.43;7.03;;;18.40;99.90;;;;;;5029801;28;20049;-62
2023/08/15 00:27:51;;;;;;;9.30;6.65;;;18.30;99.90;;;;;;5029337;28;20148;-64
2023/08/15 00:30:17;;;;;;;11.45;6.70;;;18.30;99.90;;;;;;4996132;28;20052;-63
2023/08/15 00:32:43;;;;;;;9.90;6.57;;;18.20;99.90;;;;;;5014509;28;20111;-62
2023/08/15 00:35:10;;;;;;;10.73;6.97;;;18.10;99.90;;;;;;5030048;28;20465;-62
2023/08/15 00:37:36;;;;;;;12.90;7.38;;;18.00;99.90;;;;;;5029930;28;20303;-64
2023/08/15 00:40:02;;;;;;;14.02;7.32;;;18.10;99.90;;;;;;5028970;28;20415;-63
2023/08/15 00:42:28;;;;;;;10.93;7.35;;;18.00;99.90;;;;;;5029900;28;20048;-63
2023/08/15 00:44:54;;;;;;;15.20;8.02;;;18.00;99.90;;;;;;5030082;28;20056;-62
2023/08/15 00:47:21;;;;;;;11.80;7.75;;;18.00;99.90;;;;;;5029159;28;20416;-63
2023/08/15 00:49:47;;;;;;;13.73;8.15;;;17.90;99.90;;;;;;5030133;28;20033;-63
2023/08/15 00:52:14;;;;;;;9.75;7.25;;;17.90;99.90;;;;;;5028448;28;20037;-62
2023/08/15 00:54:49;;;;;;;10.60;7.43;;;17.90;99.90;;;;;;5030466;28;20052;-63
2023/08/15 00:57:15;;;;;;;13.55;8.20;;;17.80;99.90;;;;;;5029390;28;20040;-63
2023/08/15 00:59:43;;;;;;;10.80;7.90;;;17.80;99.90;;;;;;5030116;28;20045;-63
2023/08/15 01:02:09;;;;;;;16.38;8.55;;;17.70;99.90;;;;;;5028800;28;20051;-64
2023/08/15 01:04:37;;;;;;;12.55;8.52;;;17.70;99.90;;;;;;5028644;28;20383;-63
2023/08/15 01:07:03;;;;;;;12.63;8.13;;;17.70;99.90;;;;;;5030235;28;20102;-63
2023/08/15 01:09:29;;;;;;;16.42;8.90;;;17.80;99.90;;;;;;5028959;28;20045;-63
2023/08/15 01:12:04;;;;;;;15.07;8.57;;;17.80;99.90;;;;;;5029539;28;20029;-63
2023/08/15 01:14:36;;;;;;;11.82;8.60;;;17.80;99.90;;;;;;5029063;28;20075;-64
2023/08/15 01:17:05;;;;;;;11.65;8.50;;;17.70;99.90;;;;;;5030376;28;20043;-63
2023/08/15 01:19:42;;;;;;;12.40;7.50;;;17.70;99.90;;;;;;5028461;28;20122;-63
2023/08/15 01:22:20;;;;;;;13.32;8.00;;;17.80;99.90;;;;;;5029177;28;20041;-63
2023/08/15 01:24:46;;;;;;;13.48;7.90;;;17.80;99.90;;;;;;5011637;28;20041;-64
2023/08/15 01:27:12;;;;;;;14.88;7.85;;;17.90;99.90;;;;;;5029075;28;20495;-63
2023/08/15 01:29:38;;;;;;;11.27;7.63;;;17.90;99.90;;;;;;5029108;28;20823;-64
2023/08/15 01:32:12;;;;;;;15.52;8.20;;;17.90;99.90;;;;;;5011929;28;20124;-62
2023/08/15 01:34:46;;;;;;;12.05;7.63;;;18.00;99.90;;;;;;5028665;28;20060;-63
2023/08/15 01:37:20;;;;;;;13.18;8.20;;;18.00;99.90;;;;;;5027838;28;20436;-63
2023/08/15 01:39:50;;;;;;;12.65;7.88;;;17.90;99.90;;;;;;5028956;28;20076;-64
2023/08/15 01:42:18;;;;;;;15.05;8.13;;;17.90;99.90;;;;;;5030022;28;20036;-64
2023/08/15 01:44:44;;;;;;;14.75;7.65;;;18.00;99.90;;;;;;5012562;28;20277;-64
2023/08/15 01:47:10;;;;;;;15.70;7.38;;;18.00;99.90;;;;;;5027920;28;20035;-63
2023/08/15 01:49:36;;;;;;;13.95;8.18;;;18.00;99.90;;;;;;5028426;28;20041;-64
2023/08/15 01:52:01;;;;;;;13.50;8.30;;;18.00;99.90;;;;;;5028251;28;20416;-64
2023/08/15 01:54:27;;;;;;;15.35;8.35;;;18.00;99.90;;;;;;5029111;28;20056;-63
2023/08/15 01:56:54;;;;;;;12.65;8.23;;;18.00;99.90;;;;;;5012261;28;20040;-63
2023/08/15 01:59:20;;;;;;;12.23;8.30;;;17.90;99.90;;;;;;4996356;28;20408;-63
2023/08/15 02:01:45;;;;;;;11.13;7.80;;;18.00;99.90;;;;;;5028518;28;20132;-63
2023/08/15 02:04:11;;;;;;;12.95;8.98;;;18.00;99.90;;;;;;5028204;28;20442;-63
2023/08/15 02:06:37;;;;;;;15.98;8.82;;;18.00;99.90;;;;;;5029022;28;20287;-64
2023/08/15 02:09:02;;;;;;;14.23;9.18;;;18.00;99.90;;;;;;5033821;28;20317;-62
2023/08/15 02:11:28;;;;;;;9.98;8.63;;;18.10;99.90;;;;;;5015876;28;20048;-63
2023/08/15 02:13:54;;;;;;;15.77;8.77;;;18.20;99.90;;;;;;5032882;28;20056;-63
2023/08/15 02:16:25;;;;;;;14.50;8.38;;;18.20;99.90;;;;;;5032831;28;20079;-63
2023/08/15 02:18:51;;;;;;;12.98;8.52;;;18.20;99.90;;;;;;5032647;28;20044;-63
2023/08/15 02:21:17;;;;;;;14.82;8.85;;;18.20;99.90;;;;;;5032499;28;20049;-63
2023/08/15 02:23:44;;;;;;;14.73;8.77;;;18.30;99.90;;;;;;5015975;28;20810;-64
2023/08/15 02:26:10;;;;;;;12.35;9.00;;;18.20;99.90;;;;;;5032593;28;20151;-63
2023/08/15 02:28:36;;;;;;;14.15;8.13;;;18.20;99.90;;;;;;5032428;28;20185;-62
2023/08/15 02:31:05;;;;;;;11.07;8.35;;;18.30;99.90;;;;;;5032158;28;20045;-63
2023/08/15 02:33:34;;;;;;;11.88;8.40;;;18.20;99.90;;;;;;5032115;28;20053;-63
2023/08/15 02:36:08;;;;;;;16.23;8.43;;;18.20;99.90;;;;;;5032171;28;20049;-64
2023/08/15 02:38:34;;;;;;;12.43;8.20;;;18.20;99.90;;;;;;5032245;28;20329;-63
2023/08/15 02:41:00;;;;;;;14.98;7.93;;;18.20;99.90;;;;;;5031717;28;20061;-64
2023/08/15 02:43:26;;;;;;;16.02;8.63;;;18.20;99.90;;;;;;5031693;28;20041;-64
2023/08/15 02:45:51;;;;;;;17.23;9.05;;;18.20;99.90;;;;;;5031708;28;20554;-63
2023/08/15 02:48:17;;;;;;;10.93;8.82;;;18.20;99.90;;;;;;5032307;28;20084;-64
2023/08/15 02:50:43;;;;;;;14.77;9.02;;;18.20;99.90;;;;;;5015045;28;20506;-64
2023/08/15 02:53:08;;;;;;;11.60;8.70;;;18.20;99.90;;;;;;5032646;28;20225;-64
2023/08/15 02:55:34;;;;;;;14.45;9.02;;;18.20;99.90;;;;;;4998577;28;20186;-63
2023/08/15 02:58:00;;;;;;;13.55;8.82;;;18.20;99.90;;;;;;5014948;28;20451;-63
2023/08/15 03:00:26;;;;;;;14.40;8.93;;;18.30;99.90;;;;;;5014438;28;20132;-64
2023/08/15 03:02:55;;;;;;;12.02;8.57;;;18.20;99.90;;;;;;5031337;28;20352;-63
2023/08/15 03:05:21;;;;;;;15.20;8.50;;;18.30;99.90;;;;;;5033307;28;20699;-62
2023/08/15 03:07:46;;;;;;;13.48;9.32;;;18.20;99.90;;;;;;5031672;28;20423;-64
2023/08/15 03:10:12;;;;;;;16.30;8.98;;;18.10;99.90;;;;;;5031197;28;20300;-64
2023/08/15 03:12:38;;;;;;;14.00;9.57;;;18.10;99.90;;;;;;4998340;28;20322;-63
2023/08/15 03:15:04;;;;;;;13.05;9.00;;;18.10;99.90;;;;;;5014741;28;20037;-63
2023/08/15 03:17:32;;;;;;;14.95;9.20;;;18.10;99.90;;;;;;5031110;28;20706;-63
2023/08/15 03:19:58;;;;;;;11.52;8.93;;;18.20;99.90;;;;;;5029652;28;20291;-64
2023/08/15 03:22:24;;;;;;;14.45;9.15;;;18.20;99.90;;;;;;5031145;28;20431;-64
2023/08/15 03:24:49;;;;;;;14.02;8.90;;;18.20;99.90;;;;;;5013563;28;20388;-63
2023/08/15 03:27:15;;;;;;;14.98;9.63;;;18.20;99.90;;;;;;5030223;28;20554;-64
2023/08/15 03:29:41;;;;;;;10.82;8.60;;;18.20;99.90;;;;;;5029277;28;20041;-63
2023/08/15 03:32:07;;;;;;;16.83;9.38;;;18.10;99.90;;;;;;5012951;28;20115;-64
2023/08/15 03:34:32;;;;;;;17.02;10.35;;;18.10;99.90;;;;;;5029479;28;20052;-62
2023/08/15 03:36:58;;;;;;;12.50;9.50;;;18.00;99.90;;;;;;5029880;28;20048;-63
2023/08/15 03:39:25;;;;;;;14.15;9.48;;;18.00;99.90;;;;;;5032270;28;20060;-64
2023/08/15 03:41:51;;;;;;;18.15;10.55;;;17.90;99.90;;;;;;5030332;28;20530;-62
2023/08/15 03:44:17;;;;;;;15.35;10.07;;;18.00;99.90;;;;;;4997855;28;20269;-63
2023/08/15 03:46:42;;;;;;;13.73;10.50;;;17.90;99.90;;;;;;5030808;28;20182;-63
2023/08/15 03:49:08;;;;;;;14.63;10.38;;;18.00;99.90;;;;;;5030724;28;20044;-64
2023/08/15 03:51:34;;;;;;;14.38;10.70;;;18.00;99.90;;;;;;5030316;28;20281;-63
2023/08/15 03:53:59;;;;;;;13.25;10.82;;;18.00;99.90;;;;;;5031152;28;20426;-63
2023/08/15 03:56:25;;;;;;;15.82;11.45;;;18.00;99.90;;;;;;5030474;28;20706;-63
2023/08/15 03:58:50;;;;;;;17.90;11.38;;;18.00;99.90;;;;;;5013795;28;20072;-62
2023/08/15 04:01:16;;;;;;;15.95;11.52;;;18.10;99.90;;;;;;5030346;28;20041;-63
2023/08/15 04:03:42;;;;;;;16.58;11.40;;;18.00;99.90;;;;;;5030431;28;20746;-63
2023/08/15 04:06:07;;;;;;;14.75;11.43;;;18.00;99.90;;;;;;5029855;28;20284;-63
2023/08/15 04:08:33;;;;;;;16.70;12.52;;;18.00;99.90;;;;;;5030797;28;20342;-65
2023/08/15 04:11:00;;;;;;;15.07;12.13;;;18.00;99.90;;;;;;5014247;28;20049;-63
2023/08/15 04:13:26;;;;;;;17.45;12.85;;;18.00;99.90;;;;;;5013866;28;20049;-63
2023/08/15 04:15:51;;;;;;;18.08;13.50;;;18.10;99.90;;;;;;4997188;28;20045;-63
2023/08/15 04:18:17;;;;;;;19.00;13.85;;;18.10;99.90;;;;;;5029781;28;20049;-63
2023/08/15 04:20:43;;;;;;;18.98;13.88;;;18.20;99.90;;;;;;5031449;28;20717;-63
2023/08/15 04:23:09;;;;;;;18.38;14.43;;;18.20;99.90;;;;;;5030998;28;20483;-63
2023/08/15 04:25:37;;;;;;;18.45;15.00;;;18.20;99.90;;;;;;5030745;28;20081;-63
2023/08/15 04:28:04;;;;;;;19.33;14.48;;;18.30;99.90;;;;;;5013356;28;20060;-64
2023/08/15 04:30:31;;;;;;;18.88;15.25;;;18.20;99.90;;;;;;5012596;28;20095;-63
2023/08/15 04:32:59;;;;;;;23.70;14.95;;;18.20;99.90;;;;;;5011885;28;20041;-64
2023/08/15 04:35:28;;;;;;;20.75;14.77;;;18.20;99.90;;;;;;5031123;28;20048;-63
2023/08/15 04:37:54;;;;;;;16.63;14.27;;;18.20;99.90;;;;;;5031365;28;20279;-63
2023/08/15 04:40:49;;;;;;;16.48;13.95;;;18.10;99.90;;;;;;5028411;28;20431;-63
2023/08/15 04:43:15;;;;;;;18.65;14.68;;;18.10;99.90;;;;;;5008844;28;20076;-63
2023/08/15 04:45:43;;;;;;;16.77;14.82;;;18.10;99.90;;;;;;5013054;28;20057;-64
2023/08/15 04:48:09;;;;;;;20.00;15.05;;;18.10;99.90;;;;;;5029309;28;20104;-62
2023/08/15 04:50:35;;;;;;;17.55;13.90;;;18.10;99.90;;;;;;5029372;28;20494;-64
2023/08/15 04:53:01;;;;;;;20.95;15.70;;;18.10;99.90;;;;;;5030566;28;20041;-62
2023/08/15 04:55:26;;;;;;;19.77;14.88;;;18.10;99.90;;;;;;5029305;28;20044;-63
2023/08/15 04:57:52;;;;;;;18.10;14.50;;;18.10;99.90;;;;;;5011512;28;20261;-62
2023/08/15 05:00:19;;;;;;;19.30;14.63;;;18.10;99.90;;;;;;4996835;28;20044;-63
2023/08/15 05:02:46;;;;;;;20.13;14.73;;;18.10;99.90;;;;;;5029579;28;20041;-64
2023/08/15 05:05:12;;;;;;;19.92;14.38;;;18.20;99.90;;;;;;5029252;28;20040;-64
2023/08/15 05:07:38;;;;;;;19.73;15.00;;;18.20;99.90;;;;;;5029020;28;20965;-63
2023/08/15 05:10:05;;;;;;;18.05;14.20;;;18.20;99.90;;;;;;5029088;28;20110;-63
2023/08/15 05:12:31;;;;;;;16.67;14.07;;;18.30;99.90;;;;;;5029587;28;20751;-63
2023/08/15 05:14:57;;;;;;;17.33;13.98;;;18.20;99.90;;;;;;5012568;28;20198;-64
2023/08/15 05:17:22;;;;;;;18.95;13.70;;;18.30;99.90;;;;;;5029342;28;20695;-64
2023/08/15 05:19:48;;;;;;;18.50;13.90;;;18.30;99.90;;;;;;5028325;28;20399;-63
2023/08/15 05:22:14;;;;;;;18.27;13.68;;;18.30;99.90;;;;;;5028117;28;20033;-64
2023/08/15 05:24:39;;;;;;;16.83;13.10;;;18.30;99.90;;;;;;5028616;28;20241;-62
2023/08/15 05:27:05;;;;;;;16.88;13.45;;;18.40;99.90;;;;;;5027228;28;20279;-63
2023/08/15 05:29:31;;;;;;;16.75;13.65;;;18.40;99.90;;;;;;5028255;28;20139;-64
2023/08/15 05:31:57;;;;;;;18.00;13.95;;;18.30;99.90;;;;;;5028513;28;20041;-62
2023/08/15 05:34:23;;;;;;;15.35;13.30;;;18.40;99.90;;;;;;5028924;28;20041;-64
2023/08/15 05:36:49;;;;;;;16.90;13.60;;;18.30;99.90;;;;;;5026728;28;20216;-63
2023/08/15 05:39:15;;;;;;;17.08;14.57;;;18.40;99.90;;;;;;5027418;28;20241;-63
2023/08/15 05:41:40;;;;;;;13.80;9.90;;;18.30;99.90;;;;;;5028448;28;20068;-62
2023/08/15 05:44:06;;;;;;;15.27;9.23;;;18.50;99.90;;;;;;5026657;28;20320;-63
2023/08/15 05:46:32;;;;;;;12.55;8.30;;;18.60;99.90;;;;;;5026552;28;20080;-63
2023/08/15 05:48:57;;;;;;;13.00;8.35;;;18.80;99.90;;;;;;5028182;28;20506;-64
2023/08/15 05:51:23;;;;;;;11.90;8.43;;;19.00;99.90;;;;;;5025796;28;20055;-63
2023/08/15 05:53:49;;;;;;;13.65;8.15;;;19.10;99.90;;;;;;5029393;28;20139;-62
2023/08/15 05:56:14;;;;;;;11.88;8.63;;;19.10;99.90;;;;;;5030616;28;20142;-64
2023/08/15 05:58:40;;;;;;;12.63;8.82;;;19.10;99.90;;;;;;5011592;28;20746;-64
2023/08/15 06:01:06;;;;;;;14.85;8.82;;;19.20;99.90;;;;;;5027631;28;20067;-63
2023/08/15 06:03:32;;;;;;;11.77;8.80;;;19.20;99.90;;;;;;5027795;28;20332;-63
2023/08/15 06:05:58;;;;;;;11.02;7.47;;;19.20;99.90;;;;;;5028545;28;20040;-62
2023/08/15 06:08:24;;;;;;;13.27;7.50;;;19.20;99.90;;;;;;5010618;28;20056;-63
2023/08/15 06:10:49;;;;;;;14.18;7.05;;;19.20;99.90;;;;;;5011510;28;20585;-64
2023/08/15 06:13:15;;;;;;;9.90;6.40;;;19.20;99.90;;;;;;5025265;28;20426;-63
2023/08/15 06:15:41;;;;;;;9.73;6.88;;;19.20;99.90;;;;;;5010928;28;20049;-63
2023/08/15 06:18:06;;;;;;;12.57;6.90;;;19.20;99.90;;;;;;5028531;28;20049;-63
2023/08/15 06:20:32;;;;;;;10.68;6.80;;;19.20;99.90;;;;;;5028848;28;20124;-63
2023/08/15 06:22:58;;;;;;;11.90;6.50;;;19.20;99.90;;;;;;5028089;28;20075;-63
2023/08/15 06:25:24;;;;;;;10.52;7.38;;;19.10;99.90;;;;;;5028351;28;20034;-62
2023/08/15 06:27:51;;;;;;;11.13;7.18;;;19.00;99.90;;;;;;5028269;28;20098;-64
2023/08/15 06:30:17;;;;;;;11.85;7.45;;;19.00;99.90;;;;;;5027927;28;20040;-64
2023/08/15 06:32:45;;;;;;;12.35;7.47;;;18.90;99.90;;;;;;5030906;28;20048;-64
2023/08/15 06:35:11;;;;;;;11.55;7.40;;;18.80;99.90;;;;;;4997255;28;20063;-63
2023/08/15 06:37:36;;;;;;;11.70;7.15;;;18.90;99.90;;;;;;5012202;28;20040;-64
2023/08/15 06:40:03;;;;;;;12.60;7.10;;;18.90;99.90;;;;;;5012609;28;20041;-63
2023/08/15 06:42:29;;;;;;;13.52;7.03;;;18.90;99.90;;;;;;5013171;28;20667;-63
2023/08/15 06:45:04;;;;;;;10.00;6.50;;;18.90;99.90;;;;;;5029971;28;20384;-62
2023/08/15 06:47:30;;;;;;;12.77;6.40;;;19.00;99.90;;;;;;5028166;28;21293;-63
2023/08/15 06:49:55;;;;;;;13.05;6.30;;;19.30;99.90;;;;;;5028008;28;20059;-64
2023/08/15 06:52:22;;;;;;;11.13;6.30;;;19.70;99.90;;;;;;5029716;28;20716;-63
2023/08/15 06:54:48;;;;;;;10.20;5.43;;;19.90;99.90;;;;;;5013883;28;20048;-63
2023/08/15 06:57:13;;;;;;;10.00;5.65;;;20.10;99.90;;;;;;5014928;28;20106;-63
2023/08/15 06:59:39;;;;;;;10.25;5.05;;;20.20;99.90;;;;;;5030531;28;20053;-64
2023/08/15 07:02:05;;;;;;;11.23;4.63;;;20.40;99.90;;;;;;5030105;28;20152;-63
2023/08/15 07:04:33;;;;;;;7.75;3.72;;;20.70;99.90;;;;;;5030931;28;20559;-63
2023/08/15 07:06:59;;;;;;;9.73;3.17;;;21.20;99.90;;;;;;5029342;28;20055;-63
2023/08/15 07:09:28;;;;;;;11.07;3.38;;;21.80;99.90;;;;;;4996708;28;20444;-63
2023/08/15 07:11:55;;;;;;;9.55;2.75;;;21.90;99.90;;;;;;5015917;28;20052;-65
2023/08/15 07:14:20;;;;;;;8.32;2.83;;;21.90;99.90;;;;;;5015270;28;20047;-63
2023/08/15 07:16:46;;;;;;;9.25;2.72;;;21.70;99.90;;;;;;5014545;28;20045;-63
2023/08/15 07:19:12;;;;;;;9.65;2.90;;;21.60;99.90;;;;;;5014486;28;20037;-63
2023/08/15 07:21:41;;;;;;;9.50;2.70;;;21.40;99.90;;;;;;5031606;28;20049;-63
2023/08/15 07:24:07;;;;;;;9.18;3.38;;;21.20;99.90;;;;;;5012914;28;20036;-64
2023/08/15 07:26:34;;;;;;;8.98;3.00;;;20.90;99.90;;;;;;5031018;28;20871;-63
2023/08/15 07:28:59;;;;;;;11.38;3.80;;;20.90;99.90;;;;;;5033887;28;20265;-65
2023/08/15 07:31:25;;;;;;;9.55;3.05;;;21.00;99.90;;;;;;5015478;28;20072;-63
2023/08/15 07:33:51;;;;;;;9.70;3.13;;;21.30;99.90;;;;;;5031701;28;20044;-62
2023/08/15 07:36:17;;;;;;;7.55;2.92;;;21.40;99.90;;;;;;5031598;28;20055;-63
2023/08/15 07:38:43;;;;;;;8.55;2.95;;;21.50;99.90;;;;;;5031025;28;20356;-63
2023/08/15 07:41:09;;;;;;;12.68;3.70;;;21.40;99.90;;;;;;5015107;28;20510;-63
2023/08/15 07:43:34;;;;;;;9.77;2.90;;;21.50;99.90;;;;;;5031145;28;20071;-62
2023/08/15 07:46:00;;;;;;;9.75;2.78;;;21.70;99.90;;;;;;5030182;28;20439;-64
2023/08/15 07:48:26;;;;;;;9.90;3.00;;;21.90;99.90;;;;;;5032462;28;20625;-63
2023/08/15 07:50:51;;;;;;;9.77;2.97;;;22.00;99.90;;;;;;5031071;28;20041;-63
2023/08/15 07:53:17;;;;;;;8.10;2.75;;;22.10;99.90;;;;;;5030286;28;20040;-64
2023/08/15 07:55:44;;;;;;;7.95;2.72;;;22.20;99.90;;;;;;5031085;28;20357;-63
2023/08/15 07:58:09;;;;;;;6.18;2.50;;;22.40;99.90;;;;;;5030828;28;20045;-64
2023/08/15 08:00:36;;;;;;;9.68;2.95;;;22.60;99.90;;;;;;5030836;28;20344;-63
2023/08/15 08:03:02;;;;;;;9.73;2.67;;;22.70;99.90;;;;;;5032046;28;20040;-63
2023/08/15 08:05:28;;;;;;;10.15;3.13;;;23.00;99.90;;;;;;5029556;28;20487;-62
2023/08/15 08:07:54;;;;;;;8.30;2.30;;;23.30;99.90;;;;;;5030000;28;20063;-64
2023/08/15 08:10:20;;;;;;;9.05;2.85;;;23.40;99.90;;;;;;5032369;28;20037;-63
2023/08/15 08:12:46;;;;;;;7.97;2.53;;;23.40;99.90;;;;;;5014636;28;20136;-63
2023/08/15 08:15:12;;;;;;;6.93;2.55;;;23.60;99.90;;;;;;5030506;28;20129;-63
2023/08/15 08:17:38;;;;;;;7.53;2.55;;;23.70;99.90;;;;;;5030074;28;20048;-64
2023/08/15 08:20:08;;;;;;;6.85;1.73;;;23.60;99.90;;;;;;5029871;28;20314;-63
2023/08/15 08:22:34;;;;;;;6.85;1.95;;;23.40;99.90;;;;;;5029959;28;20091;-63
2023/08/15 08:25:19;;;;;;;7.43;2.08;;;23.60;99.90;;;;;;5030197;28;20116;-63
2023/08/15 08:27:45;;;;;;;9.50;2.10;;;23.70;99.90;;;;;;5030444;28;20056;-65
2023/08/15 08:30:13;;;;;;;7.03;1.88;;;23.40;99.90;;;;;;5029273;28;20047;-64
2023/08/15 08:32:38;;;;;;;6.00;1.50;;;23.20;99.90;;;;;;5029699;28;20145;-64
2023/08/15 08:35:05;;;;;;;5.90;1.27;;;23.10;99.90;;;;;;5029896;28;20135;-65
2023/08/15 08:37:32;;;;;;;7.07;1.15;;;23.50;99.90;;;;;;5029929;28;20088;-65
2023/08/15 08:39:58;;;;;;;4.38;0.80;;;24.20;99.90;;;;;;5030132;28;20850;-64
2023/08/15 08:42:23;;;;;;;5.72;1.13;;;24.90;99.90;;;;;;5029469;28;20372;-65
2023/08/15 08:44:50;;;;;;;4.75;1.35;;;25.20;91.20;;;;;;5012527;28;20073;-64
2023/08/15 08:47:20;;;;;;;4.78;0.90;;;25.20;72.30;;;;;;5012359;28;20324;-64
2023/08/15 08:49:48;;;;;;;4.75;1.10;;;25.40;47.90;;;;;;5029922;28;20037;-64
2023/08/15 08:52:15;;;;;;;5.15;0.60;;;25.40;47.30;;;;;;5029932;28;20041;-65
2023/08/15 08:54:41;;;;;;;4.32;0.70;;;25.40;21.70;;;;;;5012988;28;20032;-64
2023/08/15 08:57:07;;;;;;;2.90;0.65;;;25.90;16.20;;;;;;5029163;28;20039;-63
2023/08/15 08:59:36;;;;;;;5.53;0.55;;;26.10;6.50;;;;;;5029365;28;20053;-63
2023/08/15 09:02:02;;;;;;;2.40;0.47;;;25.80;3.20;;;;;;5029348;28;20045;-64
2023/08/15 09:04:28;;;;;;;5.18;0.52;;;25.70;3.00;;;;;;5013598;28;20052;-64
2023/08/15 09:06:54;;;;;;;2.80;0.40;;;25.90;1.00;;;;;;5029623;28;20410;-64
2023/08/15 09:09:19;;;;;;;4.18;0.70;;;25.80;1.00;;;;;;5012932;28;20072;-65
2023/08/15 09:11:46;;;;;;;4.60;0.60;;;25.90;1.00;;;;;;5012966;28;20110;-64
2023/08/15 09:14:12;;;;;;;3.95;0.63;;;26.40;1.00;;;;;;5029086;28;20076;-66
2023/08/15 09:16:49;;;;;;;3.15;0.43;;;26.60;1.00;;;;;;5028719;28;20345;-63
2023/08/15 09:19:15;;;;;;;3.85;0.60;;;26.50;1.00;;;;;;5013151;28;20617;-65
2023/08/15 09:21:42;;;;;;;3.60;0.68;;;26.30;1.00;;;;;;5029038;28;20175;-64
2023/08/15 09:24:08;;;;;;;4.63;0.60;;;26.10;1.00;;;;;;5011268;28;20420;-64
2023/08/15 09:26:35;;;;;;;3.03;0.50;;;25.80;1.00;;;;;;4995816;28;20337;-65
2023/08/15 09:29:05;;;;;;;3.88;0.60;;;26.10;1.00;;;;;;5029105;28;20040;-63
2023/08/15 09:31:31;;;;;;;5.68;0.63;;;26.40;1.00;;;;;;5012718;28;20301;-65
2023/08/15 09:33:57;;;;;;;4.20;0.60;;;26.40;1.00;;;;;;5028759;28;20052;-63
2023/08/15 09:36:26;;;;;;;4.63;0.82;;;26.30;1.00;;;;;;5028393;28;20072;-64
2023/08/15 09:38:56;;;;;;;4.22;0.90;;;25.70;1.00;;;;;;5028724;28;20055;-65
2023/08/15 09:41:27;;;;;;;5.22;0.65;;;25.90;1.00;;;;;;5028627;28;20119;-63
2023/08/15 09:43:54;;;;;;;4.97;0.75;;;26.10;1.00;;;;;;5029444;28;20507;-66
2023/08/15 09:46:21;;;;;;;5.15;0.73;;;25.90;1.00;;;;;;5029370;28;20200;-64
2023/08/15 09:48:48;;;;;;;5.93;1.10;;;26.20;1.00;;;;;;5028922;28;20072;-66
2023/08/15 09:51:15;;;;;;;7.00;0.80;;;26.50;1.00;;;;;;5028731;28;20507;-65
2023/08/15 09:53:43;;;;;;;4.43;0.88;;;26.50;1.00;;;;;;5042779;28;20090;-62
2023/08/15 09:56:09;;;;;;;3.85;0.70;;;26.70;1.00;;;;;;5044992;28;20348;-64
2023/08/15 09:58:35;;;;;;;4.43;0.82;;;26.90;1.00;;;;;;5045330;28;20049;-63
2023/08/15 10:01:03;;;;;;;3.92;0.43;;;26.80;1.00;;;;;;5044717;28;20402;-66
2023/08/15 10:03:36;;;;;;;4.38;0.50;;;26.60;1.00;;;;;;5044410;28;20036;-65
2023/08/15 10:06:03;;;;;;;3.30;0.57;;;26.30;1.00;;;;;;5047139;28;20124;-64
2023/08/15 10:08:29;;;;;;;3.53;0.52;;;25.70;1.00;;;;;;5045718;28;20044;-65
2023/08/15 10:10:58;;;;;;;2.78;0.57;;;25.40;1.00;;;;;;5028477;28;20032;-64
2023/08/15 10:13:27;;;;;;;4.25;0.50;;;25.60;1.00;;;;;;5047304;28;20399;-64
2023/08/15 10:15:54;;;;;;;4.80;0.50;;;25.70;1.00;;;;;;5028779;28;20391;-65
2023/08/15 10:18:20;;;;;;;3.22;0.40;;;25.00;1.00;;;;;;5046762;28;20086;-62
2023/08/15 10:20:53;;;;;;;5.85;0.50;;;25.20;1.00;;;;;;5028939;28;20041;-64
2023/08/15 10:27:00;;;;;;;4.30;0.60;;;25.00;1.00;;;;;;5047101;28;20567;-63
2023/08/15 10:29:26;;;;;;;4.25;0.60;;;24.80;1.00;;;;;;5028757;28;20124;-63
2023/08/15 10:32:03;;;;;;;4.00;0.60;;;25.10;1.00;;;;;;5049386;28;20055;-62
2023/08/15 10:34:33;;;;;;;3.30;0.47;;;25.10;1.00;;;;;;5048605;28;20041;-63
2023/08/15 10:37:30;;;;;;;3.83;0.60;;;24.90;1.00;;;;;;5049372;28;20115;-64
2023/08/15 10:40:13;;;;;;;4.97;0.55;;;24.70;1.00;;;;;;5048263;28;20045;-63
2023/08/15 10:42:57;;;;;;;;;;;24.50;1.00;;;;;;5050960;28;20091;-63
2023/08/15 10:46:04;;;;;;;4.75;0.55;;;24.50;11.70;;;;;;5049194;28;19947;-64
2023/08/15 10:48:35;;;;;;;4.88;0.50;;;24.50;3.30;;;;;;5048549;28;20053;-64
2023/08/15 10:51:01;;;;;;;3.57;0.40;;;24.40;3.50;;;;;;5032144;28;20037;-64
2023/08/15 10:53:49;;;;;;;3.42;0.50;;;24.40;9.00;;;;;;5032669;28;20495;-64
2023/08/15 10:56:21;;;;;;;3.17;0.40;;;25.10;4.60;;;;;;5047793;28;20048;-64
2023/08/15 10:59:26;;;;;;;3.38;0.57;;;25.80;1.00;;;;;;5049725;28;20495;-64
2023/08/15 11:01:54;;;;;;;3.28;0.30;;;26.20;1.00;;;;;;5048707;28;20414;-64
2023/08/15 11:04:24;;;;;;;1.77;0.28;;;25.60;1.00;;;;;;5050927;28;20048;-64
2023/08/15 11:06:52;;;;;;;2.78;0.40;;;25.60;1.00;;;;;;5047654;28;20041;-63
2023/08/15 11:09:26;;;;;;;3.75;0.50;;;26.00;1.00;;;;;;5048710;28;20458;-65
2023/08/15 11:11:51;;;;;;;2.88;0.32;;;26.10;1.00;;;;;;5048453;28;20045;-64
2023/08/15 11:14:18;;;;;;;3.72;0.35;;;26.50;1.00;;;;;;5047702;28;20434;-65
2023/08/15 11:16:48;;;;;;;2.63;0.50;;;26.60;1.00;;;;;;5046753;28;20126;-64
2023/08/15 11:19:15;;;;;;;1.85;0.30;;;26.50;1.00;;;;;;5048123;28;20045;-64
2023/08/15 11:21:43;;;;;;;2.67;0.43;;;26.70;1.00;;;;;;5034380;28;20073;-64
2023/08/15 11:27:50;;;;;;;3.88;0.45;;;27.10;1.00;;;;;;5049558;28;20075;-63
2023/08/15 11:33:40;;;;;;;2.55;0.32;;;27.00;1.00;;;;;;5046642;28;20040;-63
2023/08/15 11:36:08;;;;;;;3.17;0.30;;;27.00;1.00;;;;;;5047938;28;20047;-62
2023/08/15 11:38:35;;;;;;;2.72;0.47;;;27.40;1.00;;;;;;5049735;28;20453;-64
2023/08/15 11:41:02;;;;;;;2.08;0.40;;;28.00;1.00;;;;;;5048711;28;20049;-64
2023/08/15 11:43:29;;;;;;;2.15;0.30;;;27.90;1.00;;;;;;5048014;28;20077;-62
2023/08/15 11:45:56;;;;;;;2.60;0.38;;;28.10;1.00;;;;;;5048930;28;20045;-63
2023/08/15 11:48:22;;;;;;;3.05;0.30;;;27.60;1.00;;;;;;5048996;28;20115;-64
2023/08/15 11:50:50;;;;;;;2.90;0.30;;;27.70;1.00;;;;;;5048019;28;20713;-64
2023/08/15 11:53:17;;;;;;;2.00;0.25;;;27.90;1.00;;;;;;5047512;28;20048;-66
2023/08/15 11:55:44;;;;;;;2.53;0.30;;;28.10;1.00;;;;;;5030552;28;20032;-64
2023/08/15 11:58:29;;;;;;;4.28;0.40;;;27.50;1.00;;;;;;5050315;28;20078;-64
2023/08/15 12:01:14;;;;;;;2.80;0.30;;;27.00;1.00;;;;;;5047905;28;20052;-62
2023/08/15 12:03:40;;;;;;;1.77;0.32;;;26.40;1.00;;;;;;5031146;28;20471;-62
2023/08/15 12:06:08;;;;;;;4.85;0.30;;;26.10;1.00;;;;;;5030167;28;20036;-62
2023/08/15 12:08:33;;;;;;;2.78;0.30;;;26.10;1.00;;;;;;5047312;28;20083;-64
2023/08/15 12:11:08;;;;;;;2.30;0.30;;;26.10;1.00;;;;;;5029751;28;20037;-65
2023/08/15 12:13:37;;;;;;;3.30;0.40;;;26.00;1.00;;;;;;5045562;28;20395;-65
2023/08/15 12:16:03;;;;;;;3.88;0.43;;;25.70;1.00;;;;;;5048020;28;20498;-64
2023/08/15 12:18:30;;;;;;;3.58;0.40;;;25.60;1.00;;;;;;5018703;28;20060;-63
2023/08/15 12:20:59;;;;;;;2.85;0.50;;;25.60;1.00;;;;;;5047062;28;20051;-68
2023/08/15 12:27:06;;;;;;;1.95;0.40;;;25.40;1.00;;;;;;5048928;28;20039;-66
2023/08/15 12:29:32;;;;;;;3.80;0.40;;;25.00;1.00;;;;;;5029550;28;20398;-63
2023/08/15 12:31:57;;;;;;;2.65;0.50;;;25.10;1.00;;;;;;5046260;28;20049;-65
2023/08/15 12:34:23;;;;;;;2.05;0.38;;;25.00;1.00;;;;;;5046530;28;20041;-64
2023/08/15 12:36:48;;;;;;;2.78;0.40;;;25.10;1.00;;;;;;5046258;28;20036;-63
2023/08/15 12:39:16;;;;;;;2.45;0.30;;;25.40;1.00;;;;;;5029579;28;20483;-66
2023/08/15 12:42:21;;;;;;;2.78;0.50;;;25.80;1.00;;;;;;5046453;28;20060;-65
2023/08/15 12:44:47;;;;;;;4.13;0.43;;;25.90;1.00;;;;;;5045070;28;20044;-62
2023/08/15 12:47:13;;;;;;;4.30;0.50;;;25.90;1.00;;;;;;5045821;28;20044;-66
2023/08/15 12:49:39;;;;;;;4.07;0.50;;;25.80;1.00;;;;;;5028356;28;20684;-64
2023/08/15 12:52:06;;;;;;;3.47;0.50;;;26.30;1.00;;;;;;5028372;28;20424;-64
2023/08/15 12:54:34;;;;;;;2.83;0.88;;;26.60;1.00;;;;;;5028227;28;20471;-64
2023/08/15 12:57:02;;;;;;;4.25;1.45;;;26.50;1.00;;;;;;5045987;28;20043;-64
2023/08/15 12:59:30;;;;;;;3.75;0.50;;;26.20;1.00;;;;;;5046014;28;20122;-65